Time;durP1;ratioP1;P1;durP2;ratioP2;P2;SDS_P1;SDS_P2;PMS_P1;PMS_P2;Temp;Humidity;BMP_temperature;BMP_pressure;BME280_temperature;BME280_humidity;BME280_pressure;Samples;Min_cycle;Max_cycle;Signal;HPM_P1;HPM_P2
2022/09/24 00:01:20;;;;;;;53.33;41.92;;;12.90;99.90;;;;;;4995100;28;20061;-72
2022/09/24 00:03:55;;;;;;;55.92;39.10;;;12.90;99.90;;;;;;4995490;28;20043;-71
2022/09/24 00:06:22;;;;;;;55.25;37.42;;;12.90;99.90;;;;;;4989414;28;20170;-72
2022/09/24 00:08:50;;;;;;;55.70;42.13;;;12.90;99.90;;;;;;4978603;28;20120;-72
2022/09/24 00:11:18;;;;;;;55.25;43.88;;;12.90;99.90;;;;;;4995483;28;20086;-71
2022/09/24 00:13:44;;;;;;;58.33;45.50;;;12.80;99.90;;;;;;4995284;28;20058;-72
2022/09/24 00:16:12;;;;;;;51.97;41.70;;;12.90;99.90;;;;;;4978207;28;20404;-72
2022/09/24 00:18:38;;;;;;;59.80;45.25;;;12.90;99.90;;;;;;4994728;28;20050;-73
2022/09/24 00:21:15;;;;;;;59.90;45.40;;;13.10;99.90;;;;;;5008545;28;20057;-72
2022/09/24 00:23:41;;;;;;;59.67;46.40;;;13.00;99.90;;;;;;4982786;28;20054;-72
2022/09/24 00:28:54;;;;;;;54.47;43.67;;;12.90;99.90;;;;;;5014411;28;20053;-71
2022/09/24 00:31:20;;;;;;;70.57;50.80;;;13.00;99.90;;;;;;5013053;28;20046;-72
2022/09/24 00:33:46;;;;;;;53.03;43.38;;;13.00;99.90;;;;;;5006705;28;20042;-73
2022/09/24 00:36:13;;;;;;;67.55;49.63;;;13.00;99.90;;;;;;4994774;28;20570;-71
2022/09/24 00:38:39;;;;;;;54.38;44.33;;;13.00;99.90;;;;;;4995118;28;20052;-73
2022/09/24 00:41:04;;;;;;;66.45;48.20;;;13.00;99.90;;;;;;4995020;28;20439;-73
2022/09/24 00:43:35;;;;;;;68.03;51.05;;;13.00;99.90;;;;;;4995009;28;20046;-74
2022/09/24 00:46:22;;;;;;;61.50;49.88;;;13.00;99.90;;;;;;4977716;28;20133;-73
2022/09/24 00:48:52;;;;;;;64.88;49.28;;;13.00;99.90;;;;;;4994612;28;20129;-73
2022/09/24 00:51:23;;;;;;;72.65;53.75;;;13.00;99.90;;;;;;4995294;28;20061;-71
2022/09/24 00:53:54;;;;;;;75.03;52.53;;;13.00;99.90;;;;;;5006590;28;20050;-73
2022/09/24 00:56:21;;;;;;;62.53;51.05;;;13.00;99.90;;;;;;4998358;28;20090;-74
2022/09/24 00:58:51;;;;;;;56.10;46.78;;;13.10;99.90;;;;;;4998382;28;20050;-71
2022/09/24 01:01:19;;;;;;;60.25;49.78;;;13.10;99.90;;;;;;4998922;28;20341;-74
2022/09/24 01:03:46;;;;;;;66.82;51.72;;;13.10;99.90;;;;;;4998320;28;20050;-72
2022/09/24 01:06:12;;;;;;;59.42;48.42;;;13.00;99.90;;;;;;4998276;28;20490;-71
2022/09/24 01:08:39;;;;;;;62.42;47.33;;;13.00;99.90;;;;;;4998421;28;20046;-72
2022/09/24 01:11:26;;;;;;;64.72;52.20;;;13.10;99.90;;;;;;5012119;28;20050;-73
2022/09/24 01:14:02;;;;;;;57.55;45.45;;;13.10;99.90;;;;;;5017514;28;20076;-74
2022/09/24 01:16:35;;;;;;;60.55;50.08;;;13.10;99.90;;;;;;5016094;28;20055;-73
2022/09/24 01:19:25;;;;;;;66.38;50.60;;;13.10;99.90;;;;;;5000099;28;20050;-72
2022/09/24 01:21:56;;;;;;;76.22;54.72;;;13.10;99.90;;;;;;4983459;28;20069;-76
2022/09/24 01:24:36;;;;;;;68.10;54.70;;;13.10;99.90;;;;;;4977714;28;20046;-74
2022/09/24 01:27:19;;;;;;;79.68;57.53;;;13.20;99.90;;;;;;4997771;28;20105;-74
2022/09/24 01:29:52;;;;;;;;;;;13.10;99.90;;;;;;4997912;28;20049;-71
2022/09/24 01:32:37;;;;;;;65.90;51.22;;;13.10;99.90;;;;;;4963469;28;19930;-71
2022/09/24 01:35:17;;;;;;;70.25;54.55;;;13.10;99.90;;;;;;5008951;28;20406;-74
2022/09/24 01:37:50;;;;;;;68.53;47.97;;;13.10;99.90;;;;;;4995079;28;20104;-74
2022/09/24 01:40:18;;;;;;;76.72;58.20;;;13.10;99.90;;;;;;4998035;28;20403;-72
2022/09/24 01:42:45;;;;;;;91.05;62.80;;;13.10;99.90;;;;;;4981057;28;20046;-73
2022/09/24 01:45:12;;;;;;;70.95;58.30;;;13.20;99.90;;;;;;5005250;28;20443;-72
2022/09/24 01:47:39;;;;;;;84.78;60.95;;;13.20;99.90;;;;;;4987793;28;20062;-73
2022/09/24 01:50:13;;;;;;;77.47;54.22;;;13.10;99.90;;;;;;4998670;28;20363;-72
2022/09/24 01:52:51;;;;;;;69.70;53.80;;;13.20;99.90;;;;;;4997597;28;20038;-73
2022/09/24 01:55:19;;;;;;;72.50;60.05;;;13.20;99.90;;;;;;4993201;28;20085;-71
2022/09/24 01:57:55;;;;;;;89.20;63.78;;;13.20;99.90;;;;;;5016520;28;20128;-72
2022/09/24 02:00:21;;;;;;;86.70;65.60;;;13.20;99.90;;;;;;5016742;28;20046;-74
2022/09/24 02:02:52;;;;;;;75.40;57.78;;;13.20;99.90;;;;;;4998025;28;20136;-72
2022/09/24 02:05:40;;;;;;;73.97;55.30;;;13.20;99.90;;;;;;5015647;28;20096;-71
2022/09/24 02:08:15;;;;;;;70.53;55.60;;;13.20;99.90;;;;;;5016294;28;20437;-72
2022/09/24 02:10:54;;;;;;;71.53;55.00;;;13.20;99.90;;;;;;5017274;28;20042;-74
2022/09/24 02:13:23;;;;;;;74.80;58.80;;;13.30;99.90;;;;;;5016617;28;20042;-73
2022/09/24 02:15:52;;;;;;;72.82;57.00;;;13.20;99.90;;;;;;5016635;28;20060;-72
2022/09/24 02:18:24;;;;;;;70.75;53.90;;;13.20;99.90;;;;;;4999651;28;20363;-72
2022/09/24 02:20:51;;;;;;;67.95;56.05;;;13.20;99.90;;;;;;5016477;28;20466;-72
2022/09/24 02:23:19;;;;;;;81.20;59.60;;;13.20;99.90;;;;;;5014597;28;20493;-71
2022/09/24 02:25:58;;;;;;;78.13;57.83;;;13.20;99.90;;;;;;4999420;28;20085;-72
2022/09/24 02:28:25;;;;;;;111.32;68.32;;;13.20;99.90;;;;;;5016077;28;20366;-73
2022/09/24 02:30:56;;;;;;;92.32;62.67;;;13.30;99.90;;;;;;5013080;28;20049;-72
2022/09/24 02:36:08;;;;;;;68.25;55.17;;;13.20;99.90;;;;;;5016312;28;20057;-72
2022/09/24 02:38:34;;;;;;;76.22;57.70;;;13.20;99.90;;;;;;5004748;28;20138;-72
2022/09/24 02:41:00;;;;;;;93.05;64.97;;;13.20;99.90;;;;;;4996251;28;20443;-70
2022/09/24 02:43:25;;;;;;;75.20;57.08;;;13.20;99.90;;;;;;4996744;28;20360;-72
2022/09/24 02:45:51;;;;;;;79.78;58.55;;;13.20;99.90;;;;;;4996410;28;20133;-71
2022/09/24 02:48:16;;;;;;;66.53;51.40;;;13.20;99.90;;;;;;4996350;28;20042;-72
2022/09/24 02:50:42;;;;;;;78.47;58.10;;;13.20;99.90;;;;;;4979263;28;20459;-70
2022/09/24 02:53:08;;;;;;;67.50;51.90;;;13.20;99.90;;;;;;4996426;28;20046;-73
2022/09/24 02:55:33;;;;;;;85.93;61.42;;;13.20;99.90;;;;;;4993862;28;20382;-72
2022/09/24 02:57:59;;;;;;;64.55;48.58;;;13.20;99.90;;;;;;4997722;28;20050;-72
2022/09/24 03:00:25;;;;;;;70.15;54.88;;;13.20;99.90;;;;;;4979502;28;20046;-73
2022/09/24 03:02:50;;;;;;;76.97;55.25;;;13.20;99.90;;;;;;4996920;28;20054;-72
2022/09/24 03:05:17;;;;;;;83.53;59.10;;;13.30;99.90;;;;;;5007359;28;20037;-72
2022/09/24 03:07:43;;;;;;;75.55;57.78;;;13.30;99.90;;;;;;4996278;28;20078;-72
2022/09/24 03:10:09;;;;;;;95.90;66.30;;;13.30;99.90;;;;;;4995980;28;20042;-72
2022/09/24 03:12:35;;;;;;;101.93;69.28;;;13.30;99.90;;;;;;4995761;28;20056;-72
2022/09/24 03:15:00;;;;;;;76.05;58.70;;;13.30;99.90;;;;;;4995958;28;20046;-73
2022/09/24 03:17:27;;;;;;;75.22;57.35;;;13.30;99.90;;;;;;4978004;28;20112;-73
2022/09/24 03:19:52;;;;;;;71.78;55.10;;;13.30;99.90;;;;;;4996013;28;20069;-72
2022/09/24 03:22:18;;;;;;;71.70;54.65;;;13.30;99.90;;;;;;4995502;28;20050;-72
2022/09/24 03:24:44;;;;;;;86.85;61.13;;;13.30;99.90;;;;;;4995892;28;20054;-72
2022/09/24 03:27:10;;;;;;;88.13;57.53;;;13.30;99.90;;;;;;4995705;28;20104;-71
2022/09/24 03:32:20;;;;;;;72.55;56.53;;;13.30;99.90;;;;;;4995985;28;20065;-71
2022/09/24 03:34:46;;;;;;;69.70;54.15;;;13.30;99.90;;;;;;4995936;28;20092;-73
2022/09/24 03:37:12;;;;;;;92.88;64.85;;;13.40;99.90;;;;;;4979412;28;20050;-73
2022/09/24 03:39:37;;;;;;;96.20;63.85;;;13.40;99.90;;;;;;4978729;28;20046;-72
2022/09/24 03:42:03;;;;;;;85.07;60.17;;;13.40;99.90;;;;;;4996465;28;20038;-72
2022/09/24 03:44:29;;;;;;;75.15;54.97;;;13.30;99.90;;;;;;4995541;28;20039;-74
2022/09/24 03:46:55;;;;;;;79.82;57.90;;;13.40;99.90;;;;;;4994966;28;20124;-71
2022/09/24 03:49:22;;;;;;;75.88;57.00;;;13.30;99.90;;;;;;4987010;28;20068;-73
2022/09/24 03:51:49;;;;;;;79.50;58.63;;;13.40;99.90;;;;;;5013202;28;20045;-72
2022/09/24 03:54:15;;;;;;;66.20;53.40;;;13.40;99.90;;;;;;5010154;28;20046;-71
2022/09/24 03:56:41;;;;;;;71.28;53.85;;;13.30;99.90;;;;;;4978955;28;20125;-73
2022/09/24 03:59:09;;;;;;;66.68;49.20;;;13.40;99.90;;;;;;5001831;28;20038;-72
2022/09/24 04:01:36;;;;;;;68.55;53.60;;;13.40;99.90;;;;;;5012831;28;20039;-74
2022/09/24 04:04:02;;;;;;;68.97;55.85;;;13.40;99.90;;;;;;5014666;28;20064;-73
2022/09/24 04:06:28;;;;;;;76.65;57.28;;;13.40;99.90;;;;;;5014767;28;20056;-73
2022/09/24 04:08:54;;;;;;;80.03;58.22;;;13.40;99.90;;;;;;4997559;28;20462;-75
2022/09/24 04:11:20;;;;;;;77.95;55.85;;;13.40;99.90;;;;;;5014817;28;20053;-76
2022/09/24 04:13:46;;;;;;;77.55;59.58;;;13.40;99.90;;;;;;4998070;28;20119;-75
2022/09/24 04:16:11;;;;;;;86.63;62.85;;;13.30;99.90;;;;;;4998127;28;20045;-73
2022/09/24 04:18:38;;;;;;;91.15;62.10;;;13.40;99.90;;;;;;5014143;28;20045;-74
2022/09/24 04:21:04;;;;;;;70.30;50.83;;;13.40;99.90;;;;;;5014506;28;20058;-75
2022/09/24 04:23:31;;;;;;;115.10;67.63;;;13.40;99.90;;;;;;4972611;28;20092;-72
2022/09/24 04:26:00;;;;;;;101.85;65.57;;;13.30;99.90;;;;;;5012401;28;20085;-72
2022/09/24 04:28:27;;;;;;;109.10;68.32;;;13.50;99.90;;;;;;4998495;28;20474;-72
2022/09/24 04:30:52;;;;;;;100.32;60.28;;;13.30;99.90;;;;;;5000014;28;20038;-72
2022/09/24 04:33:18;;;;;;;90.70;52.30;;;13.40;99.90;;;;;;4987954;28;20466;-72
2022/09/24 04:35:44;;;;;;;85.00;63.22;;;13.30;99.90;;;;;;4998561;28;20370;-74
2022/09/24 04:38:10;;;;;;;93.68;62.58;;;13.40;99.90;;;;;;4981865;28;20047;-74
2022/09/24 04:40:36;;;;;;;85.95;58.72;;;13.30;99.90;;;;;;4999378;28;20116;-71
2022/09/24 04:43:04;;;;;;;97.55;68.13;;;13.20;99.90;;;;;;4998609;28;20120;-71
2022/09/24 04:45:31;;;;;;;99.72;63.65;;;13.30;99.90;;;;;;4981880;28;20116;-73
2022/09/24 04:47:57;;;;;;;98.82;62.75;;;13.30;99.90;;;;;;4999430;28;20043;-72
2022/09/24 04:50:24;;;;;;;88.30;52.30;;;13.30;99.90;;;;;;4999062;28;20103;-72
2022/09/24 04:52:50;;;;;;;79.07;56.72;;;13.30;99.90;;;;;;4981903;28;20046;-73
2022/09/24 04:55:16;;;;;;;64.63;52.90;;;13.30;99.90;;;;;;5010264;28;20382;-71
2022/09/24 04:57:41;;;;;;;65.43;46.95;;;13.30;99.90;;;;;;5014220;28;20060;-73
2022/09/24 05:00:13;;;;;;;74.32;55.78;;;13.30;99.90;;;;;;4982268;28;20383;-74
2022/09/24 05:02:39;;;;;;;78.72;55.58;;;13.30;99.90;;;;;;4992335;28;20050;-72
2022/09/24 05:05:05;;;;;;;80.55;57.50;;;13.30;99.90;;;;;;4998526;28;20061;-71
2022/09/24 05:07:31;;;;;;;82.95;58.83;;;13.30;99.90;;;;;;4998517;28;20487;-74
2022/09/24 05:09:56;;;;;;;112.68;70.10;;;13.30;99.90;;;;;;4981530;28;20074;-72
2022/09/24 05:12:22;;;;;;;64.13;49.45;;;13.30;99.90;;;;;;4981666;28;20057;-75
2022/09/24 05:14:47;;;;;;;80.75;53.30;;;13.30;99.90;;;;;;4997789;28;20046;-74
2022/09/24 05:17:14;;;;;;;78.63;59.08;;;13.30;99.90;;;;;;4998464;28;20114;-72
2022/09/24 05:19:39;;;;;;;80.10;58.22;;;13.30;99.90;;;;;;4998215;28;20051;-72
2022/09/24 05:22:05;;;;;;;73.22;52.75;;;13.30;99.90;;;;;;4980669;28;20125;-74
2022/09/24 05:24:30;;;;;;;73.57;54.50;;;13.30;99.90;;;;;;4998323;28;20057;-72
2022/09/24 05:27:09;;;;;;;62.83;49.85;;;13.40;99.90;;;;;;4998037;28;20098;-73
2022/09/24 05:29:43;;;;;;;66.38;50.05;;;13.30;99.90;;;;;;4980232;28;20455;-73
2022/09/24 05:32:12;;;;;;;65.50;50.65;;;13.30;99.90;;;;;;4974820;28;20459;-75
2022/09/24 05:34:40;;;;;;;68.93;50.50;;;13.40;99.90;;;;;;4996717;28;20136;-74
2022/09/24 05:37:06;;;;;;;65.65;51.58;;;13.40;99.90;;;;;;4947895;28;20456;-74
2022/09/24 05:39:32;;;;;;;72.63;54.45;;;13.30;99.90;;;;;;4996664;28;20053;-71
2022/09/24 05:41:57;;;;;;;68.65;53.55;;;13.40;99.90;;;;;;4997341;28;20433;-73
2022/09/24 05:44:23;;;;;;;66.03;51.47;;;13.40;99.90;;;;;;4997879;28;20042;-73
2022/09/24 05:46:49;;;;;;;96.03;54.20;;;13.40;99.90;;;;;;4997311;28;20166;-73
2022/09/24 05:49:15;;;;;;;70.10;48.97;;;13.40;99.90;;;;;;4997255;28;20034;-73
2022/09/24 05:51:41;;;;;;;51.53;36.42;;;13.30;99.90;;;;;;4997560;28;20053;-73
2022/09/24 05:54:07;;;;;;;64.82;48.53;;;13.40;99.90;;;;;;4997586;28;20403;-73
2022/09/24 05:56:32;;;;;;;55.50;44.30;;;13.50;99.90;;;;;;4997871;28;20050;-72
2022/09/24 05:58:59;;;;;;;44.80;34.97;;;13.50;99.90;;;;;;4980209;28;20054;-74
2022/09/24 06:01:28;;;;;;;45.42;33.33;;;13.50;99.90;;;;;;4997003;28;20068;-73
2022/09/24 06:03:55;;;;;;;41.40;30.35;;;13.50;99.90;;;;;;4964614;28;20046;-72
2022/09/24 06:06:24;;;;;;;38.25;28.45;;;13.60;99.90;;;;;;4980376;28;20042;-72
2022/09/24 06:08:52;;;;;;;39.03;29.08;;;13.60;99.90;;;;;;4992735;28;20050;-73
2022/09/24 06:11:18;;;;;;;38.97;26.77;;;13.60;99.90;;;;;;4978229;28;20038;-73
2022/09/24 06:13:44;;;;;;;47.45;29.38;;;13.60;99.90;;;;;;4996277;28;20089;-71
2022/09/24 06:16:11;;;;;;;33.67;25.30;;;13.60;99.90;;;;;;4997414;28;20435;-73
2022/09/24 06:18:39;;;;;;;39.25;27.25;;;13.70;99.90;;;;;;4997719;28;20075;-72
2022/09/24 06:21:11;;;;;;;39.08;23.75;;;13.70;99.90;;;;;;4979626;28;20051;-72
2022/09/24 06:23:37;;;;;;;35.38;21.63;;;13.60;99.90;;;;;;4997120;28;20466;-71
2022/09/24 06:26:06;;;;;;;25.10;15.88;;;13.70;99.90;;;;;;4997078;28;20050;-71
2022/09/24 06:28:32;;;;;;;31.13;15.38;;;13.80;99.90;;;;;;4979541;28;20051;-73
2022/09/24 06:31:02;;;;;;;27.42;17.05;;;13.70;99.90;;;;;;4953961;28;20061;-72
2022/09/24 06:33:29;;;;;;;23.63;14.10;;;13.80;99.90;;;;;;4977259;28;20519;-72
2022/09/24 06:35:58;;;;;;;23.90;13.27;;;13.80;99.90;;;;;;4977196;28;20051;-72
2022/09/24 06:38:24;;;;;;;23.67;12.25;;;13.90;99.90;;;;;;4977386;28;20050;-72
2022/09/24 06:40:50;;;;;;;28.33;13.10;;;13.90;99.90;;;;;;4977146;28;20043;-70
2022/09/24 06:43:19;;;;;;;22.42;12.35;;;13.90;99.90;;;;;;4978061;28;20185;-73
2022/09/24 06:45:45;;;;;;;18.83;7.70;;;13.90;99.90;;;;;;4987868;28;20058;-73
2022/09/24 06:48:12;;;;;;;12.40;5.07;;;14.00;99.90;;;;;;4976550;28;20380;-73
2022/09/24 06:50:40;;;;;;;14.38;5.00;;;14.00;99.90;;;;;;4977300;28;20069;-71
2022/09/24 06:53:07;;;;;;;12.35;3.72;;;14.00;99.90;;;;;;4977155;28;20054;-71
2022/09/24 06:55:34;;;;;;;16.30;4.53;;;14.00;99.90;;;;;;4976397;28;20109;-71
2022/09/24 06:58:08;;;;;;;11.32;3.92;;;14.00;99.90;;;;;;4977068;28;20053;-71
2022/09/24 07:00:35;;;;;;;12.18;4.43;;;14.10;99.90;;;;;;4989456;28;20084;-71
2022/09/24 07:03:00;;;;;;;16.67;3.50;;;14.20;99.90;;;;;;4983381;28;20059;-73
2022/09/24 07:05:26;;;;;;;16.33;3.78;;;14.20;99.90;;;;;;4976058;28;20560;-72
2022/09/24 07:07:52;;;;;;;13.48;2.80;;;14.30;99.90;;;;;;4975364;28;20055;-71
2022/09/24 07:10:17;;;;;;;19.63;3.45;;;14.30;99.90;;;;;;4976891;28;20054;-71
2022/09/24 07:12:43;;;;;;;16.13;3.80;;;14.30;99.90;;;;;;4976509;28;20081;-71
2022/09/24 07:15:09;;;;;;;14.77;2.50;;;14.30;99.90;;;;;;4976457;28;20046;-73
2022/09/24 07:17:35;;;;;;;13.73;3.05;;;14.30;99.90;;;;;;4991416;28;20042;-71
2022/09/24 07:20:03;;;;;;;14.70;3.63;;;14.30;99.90;;;;;;4995943;28;20139;-72
2022/09/24 07:22:29;;;;;;;15.85;3.35;;;14.30;99.90;;;;;;4995743;28;20123;-72
2022/09/24 07:24:54;;;;;;;18.35;3.58;;;14.30;99.90;;;;;;4995789;28;20055;-72
2022/09/24 07:27:20;;;;;;;15.18;3.25;;;14.20;99.90;;;;;;4995879;28;20038;-71
2022/09/24 07:29:48;;;;;;;14.13;3.58;;;14.20;99.90;;;;;;4976847;28;20082;-71
2022/09/24 07:32:16;;;;;;;16.27;3.25;;;14.30;99.90;;;;;;4978561;28;20065;-72
2022/09/24 07:34:42;;;;;;;19.92;3.28;;;14.30;99.90;;;;;;4995631;28;20094;-72
2022/09/24 07:37:07;;;;;;;12.13;3.10;;;14.30;99.90;;;;;;4995487;28;20132;-72
2022/09/24 07:39:33;;;;;;;15.15;2.47;;;14.40;99.90;;;;;;4995833;28;20046;-73
2022/09/24 07:42:00;;;;;;;9.95;2.35;;;14.50;99.90;;;;;;4994962;28;20352;-73
2022/09/24 07:44:27;;;;;;;14.00;3.30;;;14.50;99.90;;;;;;4995353;28;20061;-71
2022/09/24 07:46:54;;;;;;;11.85;2.70;;;14.60;99.90;;;;;;4995512;28;20450;-73
2022/09/24 07:49:19;;;;;;;14.00;2.60;;;14.60;99.90;;;;;;4995650;28;20054;-72
2022/09/24 07:51:45;;;;;;;14.52;3.42;;;14.50;99.90;;;;;;4995626;28;20038;-71
2022/09/24 07:54:11;;;;;;;9.60;2.60;;;14.50;99.90;;;;;;4995351;28;20328;-71
2022/09/24 07:56:37;;;;;;;11.00;2.30;;;14.50;99.90;;;;;;4995236;28;20100;-71
2022/09/24 07:59:05;;;;;;;11.80;2.63;;;14.40;99.90;;;;;;4994844;28;20121;-70
2022/09/24 08:01:31;;;;;;;8.85;2.40;;;14.40;99.90;;;;;;4995473;28;20462;-72
2022/09/24 08:03:58;;;;;;;9.02;2.08;;;14.40;99.90;;;;;;4994189;28;20060;-71
2022/09/24 08:06:23;;;;;;;8.60;2.38;;;14.30;99.90;;;;;;4995278;28;20042;-71
2022/09/24 08:08:51;;;;;;;10.82;2.25;;;14.30;99.90;;;;;;4995372;28;20117;-72
2022/09/24 08:11:19;;;;;;;7.22;2.10;;;14.30;99.90;;;;;;4995246;28;20086;-71
2022/09/24 08:13:45;;;;;;;10.77;2.25;;;14.20;99.90;;;;;;4994686;28;20055;-73
2022/09/24 08:16:11;;;;;;;10.60;2.40;;;14.20;99.90;;;;;;4995569;28;20340;-72
2022/09/24 08:18:38;;;;;;;9.73;2.00;;;14.20;99.90;;;;;;4978379;28;20054;-72
2022/09/24 08:21:10;;;;;;;16.85;2.20;;;14.20;99.90;;;;;;4995409;28;20088;-70
2022/09/24 08:23:37;;;;;;;6.38;1.88;;;14.20;99.90;;;;;;4995144;28;20050;-72
2022/09/24 08:26:03;;;;;;;14.70;2.63;;;14.20;99.90;;;;;;4995226;28;20133;-70
2022/09/24 08:28:29;;;;;;;6.75;1.77;;;14.30;99.90;;;;;;4977781;28;20069;-71
2022/09/24 08:30:59;;;;;;;9.73;2.35;;;14.30;99.90;;;;;;4995133;28;20047;-72
2022/09/24 08:33:29;;;;;;;9.93;2.72;;;14.30;99.90;;;;;;4995143;28;20047;-72
2022/09/24 08:35:54;;;;;;;12.77;2.58;;;14.30;99.90;;;;;;4994911;28;20081;-73
2022/09/24 08:38:20;;;;;;;15.52;2.67;;;14.30;99.90;;;;;;4995430;28;20462;-72
2022/09/24 08:41:11;;;;;;;11.77;2.50;;;14.40;99.90;;;;;;4995116;28;20439;-71
2022/09/24 08:44:01;;;;;;;6.90;2.25;;;14.40;99.90;;;;;;4994456;28;20042;-71
2022/09/24 08:49:50;;;;;;;10.98;2.45;;;14.50;99.90;;;;;;4978239;28;20133;-72
2022/09/24 08:52:29;;;;;;;9.18;2.40;;;14.50;99.90;;;;;;4994282;28;20066;-71
2022/09/24 08:54:57;;;;;;;11.48;2.65;;;14.60;99.90;;;;;;4994916;28;20042;-71
2022/09/24 08:57:24;;;;;;;12.40;2.55;;;14.50;99.90;;;;;;4994710;28;20118;-72
2022/09/24 08:59:51;;;;;;;10.32;2.95;;;14.50;99.90;;;;;;4994902;28;20046;-72
2022/09/24 09:02:42;;;;;;;13.45;3.30;;;14.50;99.90;;;;;;4977576;28;20517;-72
2022/09/24 09:05:49;;;;;;;13.93;3.20;;;14.50;99.90;;;;;;4994838;28;20057;-71
2022/09/24 09:08:41;;;;;;;14.15;3.10;;;14.50;99.90;;;;;;4977681;28;20054;-72
2022/09/24 09:11:12;;;;;;;14.48;2.90;;;14.50;99.90;;;;;;4994916;28;20093;-72
2022/09/24 09:13:53;;;;;;;13.95;3.03;;;14.60;99.90;;;;;;4994357;28;20049;-70
2022/09/24 09:16:26;;;;;;;12.15;3.10;;;14.60;99.90;;;;;;4997889;28;20053;-72
2022/09/24 09:18:54;;;;;;;;;;;14.70;99.90;;;;;;4998872;28;20125;-74
2022/09/24 09:21:30;;;;;;;10.60;2.35;;;14.70;99.90;;;;;;4998154;28;20323;-71
2022/09/24 09:24:00;;;;;;;13.88;2.45;;;14.70;99.90;;;;;;4998013;28;20050;-73
2022/09/24 09:26:26;;;;;;;12.50;2.38;;;14.70;99.90;;;;;;4998017;28;20054;-74
2022/09/24 09:28:58;;;;;;;11.57;2.53;;;14.70;99.90;;;;;;4997237;28;20069;-71
2022/09/24 09:31:54;;;;;;;13.70;2.85;;;14.70;99.90;;;;;;4997832;28;20053;-72
2022/09/24 09:34:43;;;;;;;15.77;3.50;;;14.60;99.90;;;;;;4981174;28;20054;-73
2022/09/24 09:37:36;;;;;;;11.07;2.38;;;14.60;99.90;;;;;;4980118;28;20507;-72
2022/09/24 09:40:20;;;;;;;11.18;2.53;;;14.60;99.90;;;;;;4980268;28;20376;-70
2022/09/24 09:42:46;;;;;;;;;;;14.60;99.90;;;;;;4995440;28;20046;-70
2022/09/24 09:45:38;;;;;;;14.23;2.80;;;14.60;99.90;;;;;;4997617;28;20330;-74
2022/09/24 09:48:05;;;;;;;13.30;2.88;;;14.60;99.90;;;;;;4996814;28;20061;-72
2022/09/24 09:50:45;;;;;;;12.85;2.40;;;14.60;99.90;;;;;;4997606;28;20063;-73
2022/09/24 09:53:22;;;;;;;8.52;1.75;;;14.50;99.90;;;;;;4997913;28;20061;-70
2022/09/24 09:55:52;;;;;;;10.75;2.15;;;14.60;99.90;;;;;;4994951;28;20047;-71
2022/09/24 09:58:25;;;;;;;15.10;2.88;;;14.60;99.90;;;;;;4996571;28;20042;-73
2022/09/24 10:01:09;;;;;;;12.65;3.08;;;14.60;99.90;;;;;;4979995;28;20050;-71
2022/09/24 10:03:48;;;;;;;9.95;1.92;;;14.50;99.90;;;;;;4979904;28;20042;-71
2022/09/24 10:06:29;;;;;;;14.15;2.45;;;14.50;99.90;;;;;;4996172;28;20086;-70
2022/09/24 10:09:14;;;;;;;8.57;2.17;;;14.50;99.90;;;;;;4980374;28;20060;-69
2022/09/24 10:11:41;;;;;;;8.55;1.88;;;14.40;99.90;;;;;;4996649;28;20050;-70
2022/09/24 10:14:10;;;;;;;10.50;2.30;;;14.40;99.90;;;;;;4996503;28;20046;-70
2022/09/24 10:16:42;;;;;;;8.85;2.00;;;14.40;99.90;;;;;;4996870;28;20046;-71
2022/09/24 10:19:35;;;;;;;6.90;2.10;;;14.50;99.90;;;;;;4979600;28;20061;-72
2022/09/24 10:22:19;;;;;;;8.53;2.53;;;14.50;99.90;;;;;;4992917;28;20061;-73
2022/09/24 10:24:45;;;;;;;8.35;2.08;;;14.60;99.90;;;;;;4996725;28;20064;-71
2022/09/24 10:27:28;;;;;;;8.40;2.45;;;14.70;99.90;;;;;;4995725;28;20054;-72
2022/09/24 10:32:40;;;;;;;7.13;1.80;;;14.70;99.90;;;;;;4996216;28;20455;-72
2022/09/24 10:35:21;;;;;;;7.65;1.75;;;14.80;99.90;;;;;;4995450;28;20133;-70
2022/09/24 10:37:51;;;;;;;5.60;1.98;;;14.80;99.90;;;;;;4989144;28;20069;-72
2022/09/24 10:40:27;;;;;;;8.10;2.00;;;14.80;99.90;;;;;;4977226;28;20113;-69
2022/09/24 10:43:03;;;;;;;5.13;1.55;;;14.80;99.90;;;;;;4976877;28;20392;-72
2022/09/24 10:46:33;;;;;;;6.07;1.63;;;14.80;99.90;;;;;;4976890;28;20066;-72
2022/09/24 10:49:13;;;;;;;11.30;1.98;;;14.70;99.90;;;;;;4935904;29;20452;-71
2022/09/24 10:51:48;;;;;;;9.77;2.13;;;14.80;99.90;;;;;;4935940;29;20090;-73
2022/09/24 10:54:33;;;;;;;9.68;1.92;;;14.80;99.90;;;;;;4973727;28;20487;-73
2022/09/24 10:57:07;;;;;;;8.95;2.40;;;14.80;99.90;;;;;;4995886;28;20050;-71
2022/09/24 10:59:59;;;;;;;11.68;2.28;;;14.90;99.90;;;;;;4995411;28;20042;-73
2022/09/24 11:02:44;;;;;;;7.65;2.08;;;14.90;99.90;;;;;;4979022;28;20498;-71
2022/09/24 11:05:22;;;;;;;9.85;1.77;;;14.90;99.90;;;;;;4978151;28;20467;-73
2022/09/24 11:07:47;;;;;;;9.00;2.00;;;14.80;99.90;;;;;;4995155;28;20046;-71
2022/09/24 11:10:50;;;;;;;8.98;2.30;;;14.90;99.90;;;;;;4978812;28;20057;-72
2022/09/24 11:13:34;;;;;;;10.27;2.33;;;14.90;99.90;;;;;;4979065;28;20371;-71
2022/09/24 11:16:22;;;;;;;7.85;1.95;;;14.90;99.90;;;;;;4995751;28;20060;-73
2022/09/24 11:19:00;;;;;;;9.40;1.92;;;14.90;99.90;;;;;;4995807;28;20374;-72
2022/09/24 11:21:40;;;;;;;6.95;1.67;;;14.90;99.90;;;;;;4995573;28;20062;-73
2022/09/24 11:24:27;;;;;;;9.20;2.28;;;14.90;99.90;;;;;;4995309;28;20054;-72
2022/09/24 11:27:03;;;;;;;8.32;1.77;;;14.90;99.90;;;;;;4978837;28;20133;-71
2022/09/24 11:29:40;;;;;;;8.57;2.15;;;14.90;99.90;;;;;;4995684;28;20069;-71
2022/09/24 11:32:17;;;;;;;8.07;1.50;;;14.90;99.90;;;;;;4995659;28;20061;-72
2022/09/24 11:35:27;;;;;;;6.15;1.75;;;14.90;99.90;;;;;;4995184;28;20053;-71
2022/09/24 11:38:01;;;;;;;8.45;1.70;;;14.90;99.90;;;;;;4960876;28;20137;-72
2022/09/24 11:40:41;;;;;;;7.82;1.85;;;14.90;99.90;;;;;;4978615;28;20050;-72
2022/09/24 11:43:32;;;;;;;7.28;1.50;;;14.90;99.90;;;;;;4995429;28;20075;-72
2022/09/24 11:46:24;;;;;;;10.77;2.33;;;15.00;99.90;;;;;;4995282;28;20118;-73
2022/09/24 11:49:04;;;;;;;9.02;2.38;;;15.00;99.90;;;;;;4993987;28;20101;-72
2022/09/24 11:51:53;;;;;;;10.38;1.60;;;15.00;99.90;;;;;;4994935;28;20133;-73
2022/09/24 11:54:30;;;;;;;7.28;1.70;;;15.00;99.90;;;;;;4995282;28;20382;-73
2022/09/24 11:57:19;;;;;;;8.85;1.98;;;15.00;99.90;;;;;;4978412;28;20058;-71
2022/09/24 11:59:57;;;;;;;12.23;2.35;;;14.90;99.90;;;;;;4992403;28;20050;-72
2022/09/24 12:02:40;;;;;;;7.43;1.80;;;14.80;99.90;;;;;;4995175;28;20046;-73
2022/09/24 12:05:40;;;;;;;9.32;2.03;;;14.70;99.90;;;;;;4994882;28;20039;-72
2022/09/24 12:08:12;;;;;;;7.68;2.38;;;14.70;99.90;;;;;;4989992;28;20082;-74
2022/09/24 12:10:56;;;;;;;9.23;2.33;;;14.70;99.90;;;;;;4995198;28;20129;-72
2022/09/24 12:13:29;;;;;;;8.00;1.95;;;14.70;99.90;;;;;;4995077;28;20382;-73
2022/09/24 12:15:55;;;;;;;;;;;14.70;99.90;;;;;;4995006;28;20066;-72
2022/09/24 12:18:34;;;;;;;11.10;1.90;;;14.70;99.90;;;;;;4978266;28;20017;-73
2022/09/24 12:21:07;;;;;;;7.13;2.05;;;14.60;99.90;;;;;;4994512;28;20117;-71
2022/09/24 12:23:38;;;;;;;6.80;1.95;;;14.70;99.90;;;;;;4977944;28;20046;-72
2022/09/24 12:26:05;;;;;;;10.75;2.38;;;14.70;99.90;;;;;;4994922;28;20043;-73
2022/09/24 12:35:04;;;;;;;15.98;2.70;;;14.50;99.90;;;;;;4977881;28;20051;-73
2022/09/24 12:37:41;;;;;;;8.30;2.67;;;14.40;99.90;;;;;;4993464;28;20129;-71
2022/09/24 12:40:34;;;;;;;9.00;2.08;;;14.40;99.90;;;;;;4995100;28;20043;-73
2022/09/24 12:43:04;;;;;;;8.48;2.08;;;14.30;99.90;;;;;;4994769;28;20108;-72
2022/09/24 12:45:33;;;;;;;5.88;1.90;;;14.30;99.90;;;;;;4994877;28;20042;-72
2022/09/24 12:48:00;;;;;;;9.30;2.03;;;14.20;99.90;;;;;;4994503;28;20046;-71
2022/09/24 12:50:29;;;;;;;7.32;2.13;;;14.20;99.90;;;;;;4997621;28;20046;-73
2022/09/24 12:52:55;;;;;;;7.55;2.17;;;14.30;99.90;;;;;;4998326;28;20058;-72
2022/09/24 12:55:33;;;;;;;6.45;1.77;;;14.30;99.90;;;;;;4998577;28;20047;-72
2022/09/24 12:58:21;;;;;;;5.40;1.92;;;14.20;99.90;;;;;;4998244;28;20050;-73
2022/09/24 13:00:47;;;;;;;5.97;1.90;;;14.20;99.90;;;;;;4998294;28;20111;-70
2022/09/24 13:03:35;;;;;;;8.05;2.03;;;14.20;99.90;;;;;;4981402;28;20172;-72
2022/09/24 13:06:02;;;;;;;13.07;2.70;;;14.30;99.90;;;;;;4997821;28;20042;-71
2022/09/24 13:08:38;;;;;;;6.45;1.83;;;14.30;99.90;;;;;;4997806;28;20474;-72
2022/09/24 13:11:23;;;;;;;6.30;2.03;;;14.30;99.90;;;;;;4997836;28;20046;-71
2022/09/24 13:14:02;;;;;;;8.18;1.90;;;14.30;99.90;;;;;;4997835;28;20054;-71
2022/09/24 13:16:28;;;;;;;6.32;2.00;;;14.30;99.90;;;;;;4998014;28;20042;-71
2022/09/24 13:18:57;;;;;;;6.20;1.67;;;14.20;99.90;;;;;;4998379;28;20402;-71